Time;durP1;ratioP1;P1;durP2;ratioP2;P2;SDS_P1;SDS_P2;PMS_P1;PMS_P2;Temp;Humidity;BMP_temperature;BMP_pressure;BME280_temperature;BME280_humidity;BME280_pressure;Samples;Min_cycle;Max_cycle;Signal;HPM_P1;HPM_P2
2023/10/26 00:01:32;;;;;;;9.50;5.50;;;;;;;13.37;100.00;98660.72;5091982;28;20093;-44
2023/10/26 00:04:01;;;;;;;9.88;6.13;;;;;;;13.33;100.00;98659.34;5092150;28;20055;-42
2023/10/26 00:06:29;;;;;;;8.77;5.35;;;;;;;13.28;100.00;98650.91;5092374;28;20410;-43
2023/10/26 00:08:58;;;;;;;11.05;6.35;;;;;;;13.15;100.00;98646.72;5091971;28;20060;-44
2023/10/26 00:11:30;;;;;;;10.32;5.97;;;;;;;13.14;100.00;98644.19;5092508;28;20044;-43
2023/10/26 00:13:58;;;;;;;10.98;6.03;;;;;;;13.18;100.00;98643.72;5092546;28;20056;-44
2023/10/26 00:16:26;;;;;;;10.15;5.45;;;;;;;13.22;100.00;98640.78;5091716;28;20044;-42
2023/10/26 00:18:54;;;;;;;8.48;5.40;;;;;;;13.25;100.00;98640.50;5091711;28;20040;-43
2023/10/26 00:21:23;;;;;;;9.93;5.53;;;;;;;13.18;100.00;98640.22;5091813;28;20459;-42
2023/10/26 00:23:51;;;;;;;8.73;4.95;;;;;;;13.24;100.00;98633.47;5091876;28;20052;-44
2023/10/26 00:26:20;;;;;;;8.30;5.00;;;;;;;13.14;100.00;98623.59;5091714;28;20097;-44
2023/10/26 00:28:49;;;;;;;9.55;5.32;;;;;;;13.04;100.00;98632.69;5091838;28;20105;-42
2023/10/26 00:31:17;;;;;;;9.30;5.70;;;;;;;13.00;100.00;98615.22;5091571;28;20055;-43
2023/10/26 00:33:46;;;;;;;8.45;5.45;;;;;;;13.06;100.00;98623.50;5091851;28;20101;-42
2023/10/26 00:36:14;;;;;;;8.27;5.50;;;;;;;13.14;100.00;98614.75;5092421;28;20044;-45
2023/10/26 00:38:43;;;;;;;9.90;5.20;;;;;;;13.16;100.00;98616.25;5091948;28;20546;-43
2023/10/26 00:41:11;;;;;;;11.40;5.70;;;;;;;13.17;100.00;98619.78;5091699;28;20131;-42
2023/10/26 00:43:39;;;;;;;10.60;5.55;;;;;;;13.17;100.00;98612.59;5091325;28;20044;-42
2023/10/26 00:46:10;;;;;;;9.25;5.30;;;;;;;13.17;100.00;98606.41;5091701;28;20095;-44
2023/10/26 00:48:39;;;;;;;9.75;5.47;;;;;;;13.17;100.00;98596.53;5091502;28;20089;-44
2023/10/26 00:51:08;;;;;;;11.05;5.13;;;;;;;13.14;100.00;98606.72;5091498;28;20048;-46
2023/10/26 00:53:39;;;;;;;9.68;5.78;;;;;;;13.12;100.00;98616.69;5091417;28;20066;-44
2023/10/26 00:56:09;;;;;;;7.68;4.90;;;;;;;13.12;100.00;98617.56;5093029;28;20087;-41
2023/10/26 00:58:38;;;;;;;9.32;5.07;;;;;;;13.07;100.00;98606.44;5095429;28;20055;-43
2023/10/26 01:01:06;;;;;;;8.23;5.35;;;;;;;13.07;100.00;98611.81;5096098;28;20067;-43
2023/10/26 01:03:38;;;;;;;9.02;5.55;;;;;;;13.07;100.00;98606.44;5095555;28;20504;-42
2023/10/26 01:06:07;;;;;;;8.65;5.30;;;;;;;13.04;100.00;98606.75;5095524;28;20048;-43
2023/10/26 01:08:36;;;;;;;9.00;5.60;;;;;;;12.88;100.00;98609.19;5095273;28;20465;-41
2023/10/26 01:11:05;;;;;;;10.23;5.97;;;;;;;12.90;100.00;98607.22;5095047;28;20048;-43
2023/10/26 01:13:34;;;;;;;7.80;5.25;;;;;;;12.90;100.00;98604.53;5096351;28;20063;-43
2023/10/26 01:16:04;;;;;;;8.25;5.65;;;;;;;12.93;100.00;98601.56;5096477;28;20044;-42
2023/10/26 01:18:33;;;;;;;8.77;5.70;;;;;;;12.86;100.00;98604.00;5096353;28;20040;-43
2023/10/26 01:21:02;;;;;;;9.18;5.80;;;;;;;12.85;100.00;98599.66;5095751;28;20048;-43
2023/10/26 01:23:32;;;;;;;9.90;6.28;;;;;;;12.71;100.00;98585.88;5095080;28;20052;-42
2023/10/26 01:26:00;;;;;;;9.70;6.03;;;;;;;12.71;100.00;98588.56;5095676;28;20044;-43
2023/10/26 01:28:29;;;;;;;10.05;5.80;;;;;;;12.73;100.00;98584.75;5095457;28;20117;-42
2023/10/26 01:30:57;;;;;;;8.60;5.60;;;;;;;12.81;100.00;98574.16;5095166;28;20068;-42
2023/10/26 01:33:26;;;;;;;8.65;5.55;;;;;;;12.89;100.00;98570.75;5095274;28;20405;-44
2023/10/26 01:35:54;;;;;;;9.32;5.13;;;;;;;12.95;100.00;98580.88;5095057;28;20090;-43
2023/10/26 01:38:22;;;;;;;7.88;5.03;;;;;;;12.92;100.00;98574.94;5094970;28;20112;-43
2023/10/26 01:40:53;;;;;;;13.48;5.13;;;;;;;12.93;100.00;98572.13;5095141;28;20415;-44
2023/10/26 01:43:21;;;;;;;8.88;4.95;;;;;;;12.86;100.00;98576.41;5095192;28;20463;-43
2023/10/26 01:45:49;;;;;;;7.80;4.90;;;;;;;12.90;100.00;98570.59;5094958;28;20055;-45
2023/10/26 01:48:18;;;;;;;10.05;5.03;;;;;;;12.95;100.00;98572.84;5094721;28;20048;-43
2023/10/26 01:50:46;;;;;;;10.57;4.90;;;;;;;12.94;100.00;98573.84;5095066;28;20044;-43
2023/10/26 01:53:14;;;;;;;6.70;4.32;;;;;;;12.95;100.00;98570.16;5095599;28;20197;-44
2023/10/26 01:55:43;;;;;;;8.63;4.57;;;;;;;12.96;100.00;98577.19;5095124;28;20052;-42
2023/10/26 01:58:12;;;;;;;10.20;4.55;;;;;;;13.02;100.00;98571.25;5094649;28;20071;-43
2023/10/26 02:00:42;;;;;;;8.88;4.35;;;;;;;13.00;100.00;98573.22;5094740;28;20052;-43
2023/10/26 02:03:10;;;;;;;6.53;3.60;;;;;;;13.03;100.00;98567.59;5094440;28;20055;-42
2023/10/26 02:05:39;;;;;;;7.22;3.88;;;;;;;13.04;100.00;98561.25;5094845;28;20051;-43
2023/10/26 02:08:07;;;;;;;10.27;3.83;;;;;;;13.03;100.00;98562.25;5093949;28;20139;-44
2023/10/26 02:10:36;;;;;;;7.97;4.15;;;;;;;13.00;100.00;98559.84;5094752;28;20097;-44
2023/10/26 02:13:04;;;;;;;8.27;3.85;;;;;;;12.94;100.00;98562.28;5094149;28;20554;-43
2023/10/26 02:15:34;;;;;;;10.40;3.80;;;;;;;12.99;100.00;98554.66;5094075;28;20134;-42
2023/10/26 02:18:03;;;;;;;7.47;3.78;;;;;;;12.87;100.00;98560.19;5094418;28;20052;-44
2023/10/26 02:20:31;;;;;;;9.32;4.07;;;;;;;12.83;100.00;98566.81;5094296;28;20079;-44
2023/10/26 02:23:00;;;;;;;8.63;4.13;;;;;;;12.86;100.00;98571.06;5094522;28;20067;-43
2023/10/26 02:25:28;;;;;;;7.35;4.20;;;;;;;12.85;100.00;98575.56;5094113;28;20050;-43
2023/10/26 02:27:57;;;;;;;9.00;4.25;;;;;;;12.84;100.00;98560.50;5094288;28;20075;-42
2023/10/26 02:30:25;;;;;;;8.45;4.25;;;;;;;12.66;100.00;98564.94;5093950;28;20479;-44
2023/10/26 02:32:55;;;;;;;7.20;4.35;;;;;;;12.59;100.00;98556.66;5094493;28;20131;-42
2023/10/26 02:35:23;;;;;;;9.30;4.45;;;;;;;12.57;100.00;98558.63;5094343;28;20048;-44
2023/10/26 02:37:51;;;;;;;8.35;4.20;;;;;;;12.65;100.00;98559.72;5093917;28;20043;-44
2023/10/26 02:40:20;;;;;;;9.52;4.35;;;;;;;12.65;100.00;98565.94;5093914;28;20048;-44
2023/10/26 02:42:48;;;;;;;8.68;4.65;;;;;;;12.58;100.00;98562.97;5093712;28;20134;-44
2023/10/26 02:45:16;;;;;;;8.38;4.55;;;;;;;12.57;100.00;98563.97;5093704;28;20113;-43
2023/10/26 02:47:44;;;;;;;8.27;4.60;;;;;;;12.52;100.00;98563.56;5093794;28;20048;-43
2023/10/26 02:50:14;;;;;;;9.27;4.60;;;;;;;12.47;100.00;98563.16;5093860;28;20044;-44
2023/10/26 02:52:43;;;;;;;7.78;4.78;;;;;;;12.42;100.00;98568.09;5093995;28;20530;-44
2023/10/26 02:55:12;;;;;;;8.55;4.68;;;;;;;12.55;100.00;98568.63;5093450;28;20105;-45
2023/10/26 02:57:40;;;;;;;8.73;4.60;;;;;;;12.55;100.00;98565.97;5093838;28;20040;-42
2023/10/26 03:00:09;;;;;;;9.70;4.60;;;;;;;12.59;100.00;98567.34;5093448;28;20081;-42
2023/10/26 03:02:37;;;;;;;10.93;4.97;;;;;;;12.68;100.00;98562.09;5093363;28;20689;-45
2023/10/26 03:05:06;;;;;;;8.55;4.88;;;;;;;12.72;100.00;98552.78;5093101;28;20052;-43
2023/10/26 03:07:36;;;;;;;10.07;4.50;;;;;;;12.79;100.00;98559.25;5093089;28;20085;-43
2023/10/26 03:10:06;;;;;;;9.50;4.40;;;;;;;12.63;100.00;98559.00;5093243;28;20048;-43
2023/10/26 03:12:34;;;;;;;7.70;4.32;;;;;;;12.58;100.00;98562.13;5093715;28;20091;-43
2023/10/26 03:15:02;;;;;;;8.13;4.63;;;;;;;12.66;100.00;98558.75;5093853;28;20051;-42
2023/10/26 03:17:31;;;;;;;8.30;4.75;;;;;;;12.66;100.00;98558.75;5093242;28;20071;-43
2023/10/26 03:19:59;;;;;;;12.63;4.70;;;;;;;12.55;100.00;98555.25;5092635;28;20055;-43
2023/10/26 03:22:27;;;;;;;7.90;4.78;;;;;;;12.59;100.00;98567.34;5093279;28;20044;-44
2023/10/26 03:24:57;;;;;;;7.18;4.32;;;;;;;12.66;100.00;98562.25;5093177;28;20080;-49
2023/10/26 03:27:25;;;;;;;8.95;4.85;;;;;;;12.66;100.00;98570.28;5093007;28;20048;-44
2023/10/26 03:29:53;;;;;;;10.52;5.05;;;;;;;12.59;100.00;98574.53;5092964;28;20040;-43
2023/10/26 03:32:22;;;;;;;11.43;5.10;;;;;;;12.44;100.00;98576.81;5092978;28;20050;-43
2023/10/26 03:34:50;;;;;;;9.68;5.00;;;;;;;12.47;100.00;98568.50;5092750;28;20048;-43
2023/10/26 03:37:18;;;;;;;8.15;4.80;;;;;;;12.51;100.00;98571.72;5092439;28;20135;-43
2023/10/26 03:39:49;;;;;;;10.20;5.20;;;;;;;12.50;100.00;98584.25;5092901;28;20068;-43
2023/10/26 03:42:19;;;;;;;10.45;5.20;;;;;;;12.50;100.00;98575.41;5092808;28;20094;-47
2023/10/26 03:44:47;;;;;;;10.60;4.95;;;;;;;12.49;100.00;98577.22;5092165;28;20044;-43
2023/10/26 03:47:17;;;;;;;9.27;4.90;;;;;;;12.55;100.00;98579.34;5092174;28;20048;-43
2023/10/26 03:49:46;;;;;;;10.13;4.88;;;;;;;12.58;100.00;98576.34;5091815;28;20047;-42
2023/10/26 03:52:14;;;;;;;9.98;4.97;;;;;;;12.71;100.00;98577.84;5091633;28;20044;-43
2023/10/26 03:54:42;;;;;;;10.52;4.53;;;;;;;12.74;100.00;98572.19;5091775;28;20092;-43
2023/10/26 03:57:11;;;;;;;8.77;4.53;;;;;;;12.74;100.00;98558.81;5091696;28;20044;-43
2023/10/26 03:59:40;;;;;;;7.97;4.63;;;;;;;12.74;100.00;98561.50;5091659;28;20063;-42
2023/10/26 04:02:08;;;;;;;8.73;4.85;;;;;;;12.74;100.00;98562.38;5092036;28;20070;-42
2023/10/26 04:04:37;;;;;;;9.50;5.10;;;;;;;12.72;100.00;98558.97;5091475;28;20123;-42
2023/10/26 04:07:05;;;;;;;9.80;4.60;;;;;;;12.75;100.00;98561.38;5091892;28;20051;-43
2023/10/26 04:09:33;;;;;;;13.32;4.97;;;;;;;12.72;100.00;98561.66;5091832;28;20136;-42
2023/10/26 04:12:03;;;;;;;8.60;4.32;;;;;;;12.75;100.00;98568.56;5092011;28;20047;-43
2023/10/26 04:14:33;;;;;;;10.73;4.45;;;;;;;12.73;100.00;98557.16;5091509;28;20134;-43
2023/10/26 04:17:05;;;;;;;10.05;4.65;;;;;;;12.72;100.00;98552.78;5091846;28;20044;-43
2023/10/26 04:19:34;;;;;;;11.40;4.75;;;;;;;12.69;100.00;98553.94;5091466;28;20473;-44
2023/10/26 04:22:05;;;;;;;8.40;4.65;;;;;;;12.72;100.00;98558.97;5091549;28;20044;-42
2023/10/26 04:24:34;;;;;;;11.23;4.70;;;;;;;12.74;100.00;98562.38;5091598;28;20382;-44
2023/10/26 04:27:03;;;;;;;8.05;4.63;;;;;;;12.69;100.00;98564.63;5091443;28;20083;-43
2023/10/26 04:29:32;;;;;;;10.75;4.88;;;;;;;12.66;100.00;98567.59;5091200;28;20126;-44
2023/10/26 04:32:00;;;;;;;8.23;4.72;;;;;;;12.52;100.00;98562.72;5090871;28;20489;-43
2023/10/26 04:34:30;;;;;;;9.23;5.38;;;;;;;12.12;100.00;98570.97;5091401;28;20083;-45
2023/10/26 04:36:59;;;;;;;10.13;5.43;;;;;;;12.10;100.00;98564.94;5091309;28;20136;-42
2023/10/26 04:39:28;;;;;;;9.98;5.25;;;;;;;12.03;100.00;98573.50;5091415;28;20044;-42
2023/10/26 04:41:56;;;;;;;11.98;6.22;;;;;;;11.97;100.00;98567.91;5091247;28;20171;-43
2023/10/26 04:44:24;;;;;;;11.52;6.28;;;;;;;11.97;100.00;98578.59;5091733;28;20040;-43
2023/10/26 04:46:53;;;;;;;12.70;6.18;;;;;;;11.93;100.00;98567.31;5091302;28;20040;-43
2023/10/26 04:49:21;;;;;;;9.82;6.65;;;;;;;11.98;100.00;98570.44;5091069;28;20564;-43
2023/10/26 04:51:50;;;;;;;12.00;6.53;;;;;;;11.97;100.00;98567.91;5091071;28;20044;-44
2023/10/26 04:54:18;;;;;;;14.00;7.18;;;;;;;12.00;100.00;98562.25;5090999;28;20071;-43
2023/10/26 04:56:47;;;;;;;14.10;7.15;;;;;;;12.10;100.00;98556.91;5090763;28;20119;-42
2023/10/26 04:59:15;;;;;;;13.45;7.05;;;;;;;12.18;100.00;98557.03;5090958;28;20070;-44
2023/10/26 05:01:43;;;;;;;13.02;6.60;;;;;;;12.11;100.00;98558.59;5090874;28;20051;-43
2023/10/26 05:04:12;;;;;;;16.45;7.22;;;;;;;12.18;100.00;98565.06;5091053;28;20048;-44
2023/10/26 05:06:40;;;;;;;11.77;7.13;;;;;;;12.20;100.00;98553.22;5090880;28;20374;-43
2023/10/26 05:09:10;;;;;;;14.10;6.35;;;;;;;12.29;100.00;98567.56;5090754;28;20512;-45
2023/10/26 05:11:38;;;;;;;13.25;7.65;;;;;;;12.35;100.00;98560.78;5090778;28;20047;-42
2023/10/26 05:14:08;;;;;;;14.02;6.90;;;;;;;12.30;100.00;98563.91;5090847;28;20105;-43
2023/10/26 05:16:37;;;;;;;10.10;6.13;;;;;;;12.34;100.00;98559.94;5091560;28;20052;-43
2023/10/26 05:19:05;;;;;;;11.05;6.30;;;;;;;12.46;100.00;98558.81;5091665;28;20058;-45
2023/10/26 05:21:34;;;;;;;10.88;6.72;;;;;;;12.52;100.00;98563.56;5091422;28;20076;-43
2023/10/26 05:24:03;;;;;;;12.52;6.47;;;;;;;12.49;100.00;98563.84;5091202;28;20040;-43
2023/10/26 05:26:33;;;;;;;11.93;6.65;;;;;;;12.55;100.00;98568.63;5091005;28;20600;-43
2023/10/26 05:29:03;;;;;;;11.20;6.30;;;;;;;12.49;100.00;98579.06;5091214;28;20124;-43
2023/10/26 05:31:31;;;;;;;13.25;6.55;;;;;;;12.54;100.00;98576.78;5091829;28;20048;-44
2023/10/26 05:33:59;;;;;;;12.02;6.55;;;;;;;12.60;100.00;98576.19;5091887;28;20430;-44
2023/10/26 05:36:28;;;;;;;12.35;6.38;;;;;;;12.65;100.00;98581.97;5091704;28;20044;-45
2023/10/26 05:38:56;;;;;;;14.35;6.68;;;;;;;12.71;100.00;98580.53;5091749;28;20086;-44
2023/10/26 05:41:24;;;;;;;13.32;6.32;;;;;;;12.81;100.00;98582.19;5091420;28;20044;-46
2023/10/26 05:43:54;;;;;;;15.25;5.60;;;;;;;12.88;100.00;98590.47;5094524;28;20039;-44
2023/10/26 05:46:23;;;;;;;10.48;5.95;;;;;;;12.99;100.00;98592.94;5127848;27;20097;-44
2023/10/26 05:48:51;;;;;;;12.82;6.18;;;;;;;13.07;100.00;98601.09;5094900;28;20135;-42
2023/10/26 05:51:19;;;;;;;11.90;5.88;;;;;;;13.12;100.00;98593.47;5095042;28;20052;-43
2023/10/26 05:53:47;;;;;;;11.32;5.75;;;;;;;13.23;100.00;98600.50;5095447;28;20135;-43
2023/10/26 05:56:15;;;;;;;10.82;5.70;;;;;;;13.23;100.00;98595.13;5094860;28;20044;-44
2023/10/26 05:58:44;;;;;;;12.35;6.25;;;;;;;13.25;100.00;98589.63;5094914;28;20052;-43
2023/10/26 06:01:13;;;;;;;12.43;6.50;;;;;;;13.33;100.00;98592.41;5094474;28;20404;-44
2023/10/26 06:03:42;;;;;;;11.18;5.68;;;;;;;13.39;100.00;98597.97;5094392;28;20044;-44
2023/10/26 06:06:10;;;;;;;9.40;5.28;;;;;;;13.47;100.00;98605.28;5094661;28;20207;-44
2023/10/26 06:08:39;;;;;;;10.20;4.82;;;;;;;13.54;100.00;98603.69;5094452;28;20048;-44
2023/10/26 06:11:07;;;;;;;9.88;4.97;;;;;;;13.67;100.00;98604.16;5094225;28;20048;-43
2023/10/26 06:13:35;;;;;;;10.90;5.10;;;;;;;13.70;100.00;98606.53;5094471;28;20051;-43
2023/10/26 06:16:04;;;;;;;13.38;5.05;;;;;;;13.78;100.00;98613.81;5094530;28;20487;-45
2023/10/26 06:18:34;;;;;;;12.90;4.88;;;;;;;13.80;100.00;98619.88;5094533;28;20071;-42
2023/10/26 06:21:04;;;;;;;9.70;4.40;;;;;;;13.85;100.00;98632.81;5094428;28;20044;-45
2023/10/26 06:23:33;;;;;;;10.25;4.70;;;;;;;13.86;100.00;98629.13;5093982;28;20105;-42
2023/10/26 06:26:03;;;;;;;11.07;4.43;;;;;;;13.89;100.00;98628.81;5094184;28;20051;-44
2023/10/26 06:28:31;;;;;;;9.88;4.30;;;;;;;13.89;100.00;98634.16;5094306;28;20430;-43
2023/10/26 06:31:09;;;;;;;8.65;3.92;;;;;;;13.96;100.00;98632.56;5094109;28;20653;-43
2023/10/26 06:33:39;;;;;;;10.32;4.72;;;;;;;14.00;100.00;98633.97;5094073;28;20128;-44
2023/10/26 06:36:08;;;;;;;9.85;4.10;;;;;;;14.02;100.00;98637.34;5093891;28;20131;-43
2023/10/26 06:38:37;;;;;;;10.05;4.15;;;;;;;14.06;100.00;98636.03;5093909;28;20135;-42
2023/10/26 06:41:06;;;;;;;10.20;4.00;;;;;;;14.06;100.00;98630.66;5094083;28;20045;-43
2023/10/26 06:43:34;;;;;;;10.65;4.45;;;;;;;14.06;100.00;98633.34;5093351;28;20044;-41
2023/10/26 06:46:03;;;;;;;9.63;4.32;;;;;;;14.14;100.00;98629.91;5093310;28;20413;-41
2023/10/26 06:48:34;;;;;;;9.23;3.97;;;;;;;14.13;100.00;98631.72;5092783;28;20051;-42
2023/10/26 06:51:05;;;;;;;9.45;4.05;;;;;;;14.19;100.00;98636.50;5092984;28;20044;-42
2023/10/26 06:53:34;;;;;;;10.68;4.07;;;;;;;14.20;100.00;98651.59;5093072;28;20059;-42
2023/10/26 06:56:02;;;;;;;10.27;4.15;;;;;;;14.20;100.00;98648.06;5092552;28;20082;-41
2023/10/26 06:58:31;;;;;;;8.30;3.90;;;;;;;14.27;100.00;98641.91;5093154;28;20048;-42
2023/10/26 07:01:06;;;;;;;11.45;4.03;;;;;;;14.33;100.00;98630.56;5092992;28;20044;-43
2023/10/26 07:03:48;;;;;;;10.15;4.20;;;;;;;14.38;100.00;98639.97;5092567;28;20431;-42
2023/10/26 07:06:18;;;;;;;10.07;4.18;;;;;;;14.40;100.00;98644.22;5092455;28;20044;-41
2023/10/26 07:08:47;;;;;;;12.38;4.30;;;;;;;14.41;100.00;98632.47;5092821;28;20052;-43
2023/10/26 07:11:24;;;;;;;12.05;4.60;;;;;;;14.41;100.00;98637.00;5092766;28;20097;-41
2023/10/26 07:13:52;;;;;;;8.98;4.07;;;;;;;14.41;100.00;98639.69;5092537;28;20040;-42
2023/10/26 07:16:20;;;;;;;10.73;4.07;;;;;;;14.37;100.00;98638.28;5092351;28;20079;-41
2023/10/26 07:18:49;;;;;;;10.43;4.07;;;;;;;14.23;100.00;98637.84;5092288;28;20408;-42
2023/10/26 07:21:19;;;;;;;7.30;3.60;;;;;;;14.20;100.00;98653.44;5092388;28;20489;-43
2023/10/26 07:23:48;;;;;;;10.45;3.65;;;;;;;14.27;100.00;98659.84;5092176;28;20059;-45
2023/10/26 07:26:17;;;;;;;7.60;3.85;;;;;;;14.30;100.00;98668.44;5092271;28;20054;-41
2023/10/26 07:28:45;;;;;;;8.93;4.03;;;;;;;14.46;100.00;98669.59;5092279;28;20109;-42
2023/10/26 07:31:20;;;;;;;9.82;4.20;;;;;;;14.44;100.00;98660.81;5092921;28;20052;-41
2023/10/26 07:33:50;;;;;;;12.00;5.10;;;;;;;14.50;100.00;98670.97;5092423;28;20101;-44
2023/10/26 07:36:20;;;;;;;8.93;4.22;;;;;;;14.53;100.00;98666.13;5091821;28;20477;-42
2023/10/26 07:38:49;;;;;;;8.68;4.05;;;;;;;14.56;100.00;98670.34;5092133;28;20048;-43
2023/10/26 07:41:37;;;;;;;8.88;4.18;;;;;;;14.60;100.00;98655.63;5091985;28;20044;-42
2023/10/26 07:44:26;;;;;;;7.70;3.75;;;;;;;14.45;100.00;98651.81;5091688;28;20067;-42
2023/10/26 07:46:54;;;;;;;7.38;4.20;;;;;;;14.23;100.00;98653.94;5091621;28;20055;-42
2023/10/26 07:49:22;;;;;;;9.35;3.88;;;;;;;14.32;100.00;98660.22;5091329;28;20150;-42
2023/10/26 07:51:52;;;;;;;8.75;3.88;;;;;;;14.37;100.00;98665.97;5091392;28;20047;-42
2023/10/26 07:54:20;;;;;;;9.88;4.47;;;;;;;14.39;100.00;98663.16;5091236;28;20052;-42
2023/10/26 07:56:49;;;;;;;15.52;4.78;;;;;;;14.44;100.00;98676.91;5091309;28;20055;-42
2023/10/26 07:59:17;;;;;;;9.98;4.53;;;;;;;14.50;100.00;98673.66;5091532;28;20052;-42
2023/10/26 08:01:45;;;;;;;8.95;4.88;;;;;;;14.53;100.00;98676.03;5091489;28;20496;-42
2023/10/26 08:04:13;;;;;;;9.55;5.22;;;;;;;14.52;100.00;98674.34;5091176;28;20461;-42
2023/10/26 08:06:42;;;;;;;7.47;4.30;;;;;;;14.41;100.00;98677.22;5090707;28;20102;-42
2023/10/26 08:09:12;;;;;;;8.45;4.50;;;;;;;14.52;100.00;98691.28;5090913;28;20051;-40
2023/10/26 08:11:41;;;;;;;12.30;5.20;;;;;;;14.56;100.00;98697.16;5091610;28;20135;-41
2023/10/26 08:14:11;;;;;;;11.02;4.63;;;;;;;14.61;100.00;98700.25;5091405;28;20082;-43
2023/10/26 08:16:59;;;;;;;7.47;4.65;;;;;;;14.64;100.00;98699.91;5091406;28;20412;-43
2023/10/26 08:19:28;;;;;;;9.15;5.03;;;;;;;14.55;100.00;98696.31;5091095;28;20076;-43
2023/10/26 08:21:57;;;;;;;9.45;5.22;;;;;;;14.60;100.00;98693.19;5091140;28;20048;-43
2023/10/26 08:24:27;;;;;;;9.80;5.18;;;;;;;14.59;100.00;98689.66;5091378;28;20044;-42
2023/10/26 08:26:56;;;;;;;10.30;5.20;;;;;;;14.49;100.00;98685.38;5091446;28;20405;-42
2023/10/26 08:29:26;;;;;;;8.27;5.55;;;;;;;14.62;100.00;98685.81;5091082;28;20051;-42
2023/10/26 08:31:56;;;;;;;9.63;5.60;;;;;;;14.68;100.00;98692.41;5091011;28;20048;-42
2023/10/26 08:34:25;;;;;;;10.07;5.60;;;;;;;14.75;100.00;98713.09;5091105;28;20063;-43
2023/10/26 08:36:53;;;;;;;10.82;6.10;;;;;;;14.88;100.00;98707.31;5091359;28;20142;-42
2023/10/26 08:39:40;;;;;;;7.85;5.20;;;;;;;14.92;100.00;98707.84;5091801;28;20050;-43
2023/10/26 08:42:09;;;;;;;8.82;5.28;;;;;;;14.93;100.00;98710.38;5090986;28;20048;-43
2023/10/26 08:44:42;;;;;;;9.48;5.40;;;;;;;14.87;100.00;98711.00;5090843;28;20048;-42
2023/10/26 08:47:14;;;;;;;8.23;5.85;;;;;;;14.85;100.00;98705.78;5091101;28;20123;-43
2023/10/26 08:49:44;;;;;;;9.57;5.70;;;;;;;14.84;100.00;98706.78;5091113;28;20138;-42
2023/10/26 08:52:23;;;;;;;7.85;5.25;;;;;;;14.98;100.00;98697.31;5091264;28;20050;-43
2023/10/26 08:54:52;;;;;;;11.73;5.28;;;;;;;15.04;100.00;98699.38;5091079;28;20405;-42
2023/10/26 08:57:21;;;;;;;10.18;5.13;;;;;;;15.02;100.00;98703.22;5091061;28;20047;-42
2023/10/26 08:59:49;;;;;;;8.57;5.30;;;;;;;15.10;100.00;98701.44;5090880;28;20511;-43
2023/10/26 09:02:18;;;;;;;9.48;5.13;;;;;;;15.24;100.00;98694.63;5090855;28;20047;-43
2023/10/26 09:05:02;;;;;;;8.93;5.60;;;;;;;15.44;100.00;98688.03;5090985;28;20082;-44
2023/10/26 09:07:32;;;;;;;8.27;5.20;;;;;;;15.60;100.00;98691.75;5091132;28;20044;-46
2023/10/26 09:10:02;;;;;;;8.85;5.38;;;;;;;15.69;100.00;98690.84;5091444;28;20441;-43
2023/10/26 09:12:30;;;;;;;6.93;4.93;;;;;;;15.67;100.00;98692.84;5091835;28;20079;-43
2023/10/26 09:14:59;;;;;;;12.60;6.10;;;;;;;15.68;100.00;98699.91;5091221;28;20059;-43
2023/10/26 09:17:29;;;;;;;9.48;5.43;;;;;;;15.68;100.00;98711.50;5093707;28;20047;-44
2023/10/26 09:19:58;;;;;;;19.17;6.45;;;;;;;15.68;100.00;98710.66;5095134;28;20079;-43
2023/10/26 09:22:37;;;;;;;9.52;5.30;;;;;;;15.73;100.00;98713.72;5095000;28;20463;-42
2023/10/26 09:25:12;;;;;;;11.02;5.68;;;;;;;15.82;100.00;98711.88;5095550;28;20079;-43
2023/10/26 09:27:45;;;;;;;13.10;5.32;;;;;;;15.91;100.00;98714.41;5095106;28;20405;-42
2023/10/26 09:30:25;;;;;;;8.27;5.18;;;;;;;16.00;100.00;98717.97;5094897;28;20054;-43
2023/10/26 09:32:53;;;;;;;10.35;5.10;;;;;;;16.10;100.00;98720.53;5094682;28;20052;-43
2023/10/26 09:35:29;;;;;;;10.50;4.95;;;;;;;16.25;100.00;98714.34;5094677;28;20128;-43
2023/10/26 09:37:58;;;;;;;11.25;5.68;;;;;;;16.37;100.00;98711.34;5094579;28;20126;-44
2023/10/26 09:40:28;;;;;;;12.90;5.40;;;;;;;16.40;100.00;98711.81;5094467;28;20477;-43
2023/10/26 09:42:57;;;;;;;10.13;5.00;;;;;;;16.49;100.00;98707.31;5094450;28;20050;-42
2023/10/26 09:45:27;;;;;;;11.63;5.35;;;;;;;16.63;100.00;98708.50;5094377;28;20048;-42
2023/10/26 09:47:56;;;;;;;9.07;4.78;;;;;;;16.76;100.00;98708.84;5094108;28;20062;-41
2023/10/26 09:50:25;;;;;;;8.02;4.32;;;;;;;16.80;100.00;98702.13;5094242;28;20074;-42
2023/10/26 09:52:56;;;;;;;10.30;4.57;;;;;;;16.89;100.00;98701.13;5094160;28;20089;-42
2023/10/26 09:55:25;;;;;;;14.70;4.93;;;;;;;16.99;100.00;98704.47;5094234;28;20044;-42
2023/10/26 09:58:00;;;;;;;7.22;4.25;;;;;;;17.00;100.00;98703.47;5093923;28;20063;-43
2023/10/26 10:00:31;;;;;;;7.10;3.88;;;;;;;16.88;100.00;98704.81;5094278;28;20449;-42
2023/10/26 10:03:09;;;;;;;12.18;4.53;;;;;;;16.83;100.00;98699.94;5094109;28;20062;-42
2023/10/26 10:05:38;;;;;;;12.40;4.65;;;;;;;16.87;100.00;98703.13;5093874;28;20481;-42
2023/10/26 10:08:07;;;;;;;9.90;4.05;;;;;;;16.88;100.00;98700.25;5093742;28;20071;-43
2023/10/26 10:10:35;;;;;;;9.27;4.22;;;;;;;16.89;100.00;98695.75;5093635;28;20102;-42
2023/10/26 10:13:05;;;;;;;9.30;4.00;;;;;;;17.13;100.00;98692.16;5093822;28;20455;-43
2023/10/26 10:15:34;;;;;;;10.57;4.53;;;;;;;17.18;100.00;98692.50;5093247;28;20052;-42
2023/10/26 10:18:10;;;;;;;8.00;4.00;;;;;;;17.19;100.00;98691.47;5093484;28;20404;-42
2023/10/26 10:20:41;;;;;;;10.57;3.80;;;;;;;17.31;100.00;98682.00;5093246;28;20083;-43
2023/10/26 10:23:27;;;;;;;7.70;3.83;;;;;;;17.51;100.00;98684.28;5093143;28;20562;-41
2023/10/26 10:26:00;;;;;;;8.55;3.90;;;;;;;17.57;100.00;98689.84;5093537;28;20079;-42
2023/10/26 10:28:54;;;;;;;7.78;3.50;;;;;;;17.64;100.00;98688.09;5092424;28;20416;-43
2023/10/26 10:31:24;;;;;;;9.82;4.10;;;;;;;17.71;100.00;98686.44;5093109;28;20052;-42
2023/10/26 10:34:03;;;;;;;8.15;3.85;;;;;;;17.79;100.00;98676.63;5093441;28;20427;-43
2023/10/26 10:37:10;;;;;;;10.05;4.18;;;;;;;17.81;100.00;98669.19;5093096;28;20048;-44
2023/10/26 10:39:40;;;;;;;6.63;3.78;;;;;;;17.85;100.00;98675.91;5093010;28;20138;-42
2023/10/26 10:42:10;;;;;;;8.63;4.38;;;;;;;17.91;100.00;98683.28;5092908;28;20504;-43
2023/10/26 10:44:43;;;;;;;10.57;2.88;;;;;;;17.94;92.64;98674.84;5093102;28;20044;-43
2023/10/26 10:47:12;;;;;;;4.63;1.88;;;;;;;17.80;90.62;98678.31;5093087;28;20040;-43
2023/10/26 10:49:40;;;;;;;4.50;1.65;;;;;;;17.67;85.53;98679.69;5092696;28;20048;-43
2023/10/26 10:52:13;;;;;;;3.00;1.33;;;;;;;17.61;80.68;98672.28;5092637;28;20132;-43
2023/10/26 10:54:49;;;;;;;3.05;1.45;;;;;;;17.44;84.73;98662.56;5092707;28;20456;-44
2023/10/26 10:57:30;;;;;;;3.25;1.35;;;;;;;17.23;81.33;98660.47;5092498;28;20074;-42
2023/10/26 11:00:00;;;;;;;3.30;1.33;;;;;;;17.39;80.98;98667.66;5092639;28;20091;-42
2023/10/26 11:02:28;;;;;;;2.60;1.40;;;;;;;17.33;79.44;98666.50;5092425;28;20054;-41
2023/10/26 11:04:58;;;;;;;2.58;1.40;;;;;;;17.46;80.79;98660.53;5092349;28;20040;-42
2023/10/26 11:07:43;;;;;;;2.30;1.20;;;;;;;17.52;82.36;98665.25;5092570;28;20097;-43
2023/10/26 11:10:12;;;;;;;2.95;1.40;;;;;;;17.48;83.02;98660.38;5092482;28;20102;-43
2023/10/26 11:12:40;;;;;;;2.70;1.50;;;;;;;17.62;82.68;98656.94;5092548;28;20424;-41
2023/10/26 11:15:11;;;;;;;3.65;1.27;;;;;;;17.59;79.14;98644.66;5092282;28;20047;-42
2023/10/26 11:17:40;;;;;;;3.42;1.45;;;;;;;17.62;78.21;98638.91;5092427;28;20520;-42
2023/10/26 11:20:36;;;;;;;2.88;1.30;;;;;;;17.60;77.36;98645.50;5092527;28;20146;-43
2023/10/26 11:23:05;;;;;;;3.13;1.58;;;;;;;17.64;78.58;98642.25;5092170;28;20048;-42
2023/10/26 11:25:33;;;;;;;4.80;1.50;;;;;;;17.80;79.00;98638.69;5092246;28;20512;-43
2023/10/26 11:28:02;;;;;;;4.25;1.77;;;;;;;17.90;79.87;98649.25;5092482;28;20451;-42
2023/10/26 11:30:31;;;;;;;2.78;1.45;;;;;;;17.90;78.01;98649.25;5092302;28;20044;-42
2023/10/26 11:32:59;;;;;;;2.75;1.58;;;;;;;18.02;78.22;98648.66;5092356;28;20044;-42
2023/10/26 11:35:28;;;;;;;4.70;1.70;;;;;;;17.99;79.18;98642.78;5092236;28;20040;-42